• Join FlightAware (Why Join?)
  • Login
  • US Flag 
03:51AM EDT


 

Airport Tracker/Info


-or-


 

Live Flight TrackerFlight Track Log ✈ EJA646 ✈ 15-Apr-2013 ✈ KMYR - KTEB

Flight Track Log - Related Links

Times and Time Zones

All times are in EDT time to prevent confusion due to time zone crossing. See the EJA646 flight status page for this flight to view local times or setup timezone preferences in your user account.

Time Position Orientation Groundspeed Altitude Reporting Facility
EDT Latitude Longitude Course Direction KTS MPH feet Rate Location/Type
12:39PM 33.7486 -78.9161 22° Northeast 215 247 4,500  Level Jacksonville Center
12:40PM 33.7969 -78.8617 43° Northeast 206 237 7,500 2,700 Climbing Jacksonville Center
12:41PM 33.8511 -78.7942 46° Northeast 244 281 10,000 2,520 Climbing Jacksonville Center
12:42PM 33.9092 -78.7189 47° Northeast 274 315 12,600 2,400 Climbing Jacksonville Center
12:43PM 33.9672 -78.6408 48° Northeast 297 342 14,900 2,100 Climbing Jacksonville Center
12:44PM 34.4106 -78.5281 22° Northeast  Level FlightAware Approximate
12:44PM 34.0292 -78.5603 47° Northeast 309 356 16,900  Level Jacksonville Center
12:46PM 34.1728 -78.3731 47° Northeast 336 387 20,700 1,560 Climbing Washington Center
12:47PM 34.2439 -78.2775 48° Northeast 349 402 21,800 1,080 Climbing Washington Center
12:48PM 34.3386 -78.2478 15° North 342 394 22,900 600 Climbing Washington Center
12:49PM 34.4431 -78.2361 North 347 399 23,100 780 Climbing Washington Center
12:50PM 34.5478 -78.2244 North 360 414 24,500 1,380 Climbing Washington Center
12:51PM 34.6481 -78.2125 North 367 422 26,000 1,200 Climbing Washington Center
12:52PM 34.7483 -78.2006 North 367 422 27,000 900 Climbing Washington Center
12:53PM 34.8386 -78.1833 North 367 422 27,900 900 Climbing Washington Center
12:54PM 34.9411 -78.1689 North 362 417 28,900 840 Climbing Washington Center
12:55PM 35.0458 -78.1544 North 367 422 29,700 660 Climbing Washington Center
12:56PM 35.1650 -78.1403 North 386 444 30,300 540 Climbing Washington Center
12:57PM 35.2758 -78.1236 North 391 450 30,800 480 Climbing Washington Center
12:58PM 35.3889 -78.1117 North 391 450 31,300 480 Climbing Washington Center
12:59PM 35.4997 -78.0975 North 396 456 31,800 540 Climbing Washington Center
01:00PM 35.6128 -78.0806 North 402 463 32,400 540 Climbing Washington Center
01:01PM 35.7236 -78.0686 North 402 463 32,900 300 Climbing Washington Center
01:02PM 35.8386 -78.0544 North 408 470 33,000  Climbing Washington Center
01:03PM 35.9536 -78.0400 North 408 470 33,000  Level Washington Center
01:04PM 36.0689 -78.0256 North 408 470 33,000  Level Washington Center
01:05PM 36.1839 -78.0111 North 408 470 33,000  Level Washington Center
01:06PM 36.2989 -77.9964 North 408 470 33,000  Level Washington Center
01:07PM 36.4119 -77.9794 North 408 470 33,000  Level Washington Center
01:08PM 36.5247 -77.9672 North 403 464 33,000  Level Washington Center
01:09PM 36.6378 -77.9500 North 409 471 33,000  Level Washington Center
01:10PM 36.7528 -77.9353 North 409 471 33,000  Level Washington Center
01:11PM 36.8658 -77.9181 North 409 471 33,000  Level Washington Center
01:12PM 36.9808 -77.9033 North 409 471 33,000  Level Washington Center
01:13PM 37.0939 -77.8883 North 409 471 33,000  Level Washington Center
01:14PM 37.2089 -77.8658 North 409 471 33,000  Level Washington Center
01:15PM 37.3061 -77.7983 29° Northeast 415 478 33,000  Level Washington Center
01:16PM 37.4119 -77.7228 30° Northeast 420 483 33,000  Level Washington Center
01:17PM 37.5239 -77.6394 31° Northeast 427 491 33,000  Level Washington Center
01:18PM 37.6272 -77.5611 31° Northeast 427 491 33,000  Level Washington Center
01:19PM 37.7328 -77.4850 30° Northeast 427 491 33,000  Level Washington Center
01:20PM 37.8342 -77.4086 31° Northeast 427 491 33,000  Level Washington Center
01:21PM 37.9375 -77.3294 31° Northeast 427 491 33,000  Level Washington Center
01:22PM 38.0386 -77.2528 31° Northeast 427 491 33,000  Level Washington Center
01:23PM 38.1336 -77.1808 31° Northeast 427 491 33,000  Level Washington Center
01:24PM 38.2472 -77.0961 30° Northeast 427 491 33,000  Level Washington Center
01:25PM 38.3356 -77.0289 31° Northeast 427 491 33,000  Level Washington Center
01:26PM 38.4492 -76.9436 30° Northeast 427 491 33,000  Level Washington Center
01:27PM 38.5481 -76.8658 32° Northeast 422 486 33,000  Level Washington Center
01:28PM 38.6489 -76.7878 31° Northeast 422 486 33,000  Level Washington Center
01:29PM 38.7456 -76.6989 36° Northeast 422 486 33,000 -540 Level Washington Center
01:30PM 38.8361 -76.5964 41° Northeast 422 486 32,000 -1,800 Descending Washington Center
01:31PM 38.9203 -76.4989 42° Northeast 417 480 29,500 -2,460 Descending Washington Center
01:32PM 39.0108 -76.3956 42° Northeast 411 473 27,200 -2,340 Descending Washington Center
01:33PM 39.1011 -76.2922 42° Northeast 418 481 24,900 -1,620 Descending Washington Center
01:34PM 39.1911 -76.1889 42° Northeast 423 487 24,000 -660 Descending Washington Center
01:35PM 39.2853 -76.0931 38° Northeast 428 493 23,600 -1,200 Descending Washington Center
01:36PM 39.3794 -75.9997 37° Northeast 433 498 21,700 -1,920 Descending Washington Center
01:36PM 39.4239 -75.9572 36° Northeast 420 483 20,900 -1,800 Descending FAA TRACON SMA TRACON (SMA)
01:37PM 39.4811 -75.9031 36° Northeast 415 478 19,700 -2,040 Descending FAA TRACON SMA TRACON (SMA)
01:37PM 39.5158 -75.8689 37° Northeast 410 472 18,900 -2,400 Descending FAA TRACON SMA TRACON (SMA)
01:38PM 39.5422 -75.8447 35° Northeast 405 466 18,100 -2,280 Descending FAA TRACON SMA TRACON (SMA)
01:38PM 39.5700 -75.8169 38° Northeast 394 453 17,400 -2,580 Descending FAA TRACON SMA TRACON (SMA)
01:38PM 39.6028 -75.7856 36° Northeast 385 443 16,400 -2,400 Descending FAA TRACON SMA TRACON (SMA)
01:39PM 39.6286 -75.7608 36° Northeast 376 433 15,800 -1,500 Descending FAA TRACON SMA TRACON (SMA)
01:39PM 39.6542 -75.7378 35° Northeast 366 421 15,400 -1,680 Descending FAA TRACON SMA TRACON (SMA)
01:39PM 39.6839 -75.7072 38° Northeast 369 425 14,700 -1,980 Descending FAA TRACON SMA TRACON (SMA)
01:40PM 39.7108 -75.6819 36° Northeast 371 427 14,100 -1,680 Descending FAA TRACON SMA TRACON (SMA)
01:40PM 39.7361 -75.6569 37° Northeast 371 427 13,600 -1,500 Descending FAA TRACON SMA TRACON (SMA)
01:40PM 39.7675 -75.6258 37° Northeast 368 423 13,100 -780 Descending FAA TRACON SMA TRACON (SMA)
01:41PM 39.7928 -75.6022 36° Northeast 366 421 13,100  Level FAA TRACON SMA TRACON (SMA)
01:41PM 39.8189 -75.5789 34° Northeast 367 422 13,100  Level FAA TRACON SMA TRACON (SMA)
01:41PM 39.8508 -75.5494 35° Northeast 365 420 13,100  Level FAA TRACON SMA TRACON (SMA)
01:42PM 39.8761 -75.5256 36° Northeast 365 420 13,100  Level FAA TRACON SMA TRACON (SMA)
01:42PM 39.9022 -75.5017 35° Northeast 367 422 13,100  Level FAA TRACON SMA TRACON (SMA)
01:42PM 39.9281 -75.4775 36° Northeast 370 426 13,100  Level FAA TRACON SMA TRACON (SMA)
01:43PM 39.9606 -75.4478 35° Northeast 368 423 13,100  Level FAA TRACON SMA TRACON (SMA)
01:43PM 39.9847 -75.4242 37° Northeast 362 417 13,100  Level FAA TRACON SMA TRACON (SMA)
01:43PM 40.0175 -75.3944 35° Northeast 363 418 13,100 -180 Level FAA TRACON SMA TRACON (SMA)
01:44PM 40.0428 -75.3708 36° Northeast 368 423 13,000  Descending FAA TRACON SMA TRACON (SMA)
01:44PM 40.0692 -75.3464 35° Northeast 366 421 13,100 120 Climbing FAA TRACON SMA TRACON (SMA)
01:44PM 40.0947 -75.3225 36° Northeast 366 421 13,100  Level FAA TRACON SMA TRACON (SMA)
01:45PM 40.1267 -75.2928 35° Northeast 366 421 13,100 -180 Level FAA TRACON SMA TRACON (SMA)
01:45PM 40.1511 -75.2689 37° Northeast 366 421 13,000 -600 Descending FAA TRACON SMA TRACON (SMA)
01:45PM 40.1767 -75.2458 35° Northeast 356 410 12,700 -1,500 Descending FAA TRACON SMA TRACON (SMA)
01:46PM 40.2306 -75.1961 35° Northeast 353 406 11,500 -1,740 Descending FAA TRACON SMA TRACON (SMA)
01:46PM 40.2547 -75.1733 36° Northeast 329 379 11,000 -1,800 Descending FAA TRACON SMA TRACON (SMA)
01:47PM 40.2806 -75.1492 36° Northeast 300 345 10,300 -1,800 Descending FAA TRACON SMA TRACON (SMA)
01:47PM 40.3022 -75.1289 36° Northeast 294 338 9,800 -1,680 Descending FAA TRACON SMA TRACON (SMA)
01:47PM 40.3217 -75.1092 38° Northeast 291 335 9,200 -1,800 Descending FAA TRACON SMA TRACON (SMA)
01:48PM 40.3433 -75.0808 45° Northeast 285 328 8,600 -1,680 Descending FAA TRACON SMA TRACON (SMA)
01:48PM 40.3600 -75.0567 48° Northeast 288 331 8,100 -1,500 Descending FAA TRACON SMA TRACON (SMA)
01:48PM 40.3756 -75.0344 47° Northeast 286 329 7,600 -1,500 Descending FAA TRACON SMA TRACON (SMA)
01:49PM 40.3975 -75.0042 46° Northeast 285 328 7,100 -900 Descending FAA TRACON SMA TRACON (SMA)
01:49PM 40.4136 -74.9814 47° Northeast 283 326 7,000 -180 Descending FAA TRACON SMA TRACON (SMA)
01:49PM 40.4303 -74.9578 47° Northeast 282 325 7,000  Level FAA TRACON SMA TRACON (SMA)
01:50PM 40.4506 -74.9306 46° Northeast 281 323 7,000 -180 Level FAA TRACON SMA TRACON (SMA)
01:50PM 40.4661 -74.9078 48° Northeast 279 321 6,900 -780 Descending FAA TRACON SMA TRACON (SMA)
01:50PM 40.4839 -74.8842 45° Northeast 280 322 6,500 -1,080 Descending FAA TRACON SMA TRACON (SMA)
01:51PM 40.5044 -74.8547 47° Northeast 282 325 6,200 -1,080 Descending FAA TRACON SMA TRACON (SMA)
01:51PM 40.5231 -74.8344 40° Northeast 287 330 5,800 -600 Descending FAA TRACON SMA TRACON (SMA)
01:51PM 40.5231 -74.8344 217° Southwest 287 330 5,800 -960 Level FAA TRACON SMA TRACON (SMA)
01:52PM 40.5833 -74.7833 33° Northeast 292 336 5,000 -960 Descending New York TRACON
01:53PM 40.6333 -74.7167 45° Northeast 281 323 4,400 -540 Descending New York TRACON
01:54PM 40.6833 -74.6500 45° Northeast 278 320 4,000 -240 Descending New York TRACON
01:55PM 40.7333 -74.5667 52° Northeast 275 316 4,000  Level New York TRACON
01:56PM 40.7833 -74.4833 52° Northeast 276 318 4,000 -180 Level New York TRACON
01:57PM 40.8333 -74.4333 37° Northeast 272 313 3,700 -480 Descending New York TRACON
01:58PM 40.8833 -74.3667 45° Northeast 255 293 3,200 -360 Descending New York TRACON
01:59PM 40.9167 -74.2833 62° Northeast 248 285 3,000 -300 Descending New York TRACON
02:00PM 40.9333 -74.2000 75° East 246 283 2,600 -480 Descending New York TRACON
02:01PM 40.9333 -74.1167 90° East 213 245 2,100 -600 Descending New York TRACON
02:02PM 40.9167 -74.0667 114° Southeast 164 189 1,400 -780 Descending New York TRACON
02:03PM 40.8667 -74.0500 166° South 122 140 500 -900 Descending New York TRACON
02:05PM 40.8500 -74.0500 57° Northeast  Level FlightAware Approximate
02:12PM 40.8501 -74.0608 57° Northeast  Level Estimated